Time;durP1;ratioP1;P1;durP2;ratioP2;P2;SDS_P1;SDS_P2;PMS_P1;PMS_P2;Temp;Humidity;BMP_temperature;BMP_pressure;BME280_temperature;BME280_humidity;BME280_pressure;Samples;Min_cycle;Max_cycle;Signal;HPM_P1;HPM_P2
2021/05/20 00:00:50;;;;;;;24.43;18.70;;;;;;;18.40;60.52;100624.28;2078012;28;20034;-66
2021/05/20 00:01:52;;;;;;;22.90;18.63;;;;;;;18.40;60.58;100627.03;2071270;28;20133;-65
2021/05/20 00:02:53;;;;;;;21.98;16.77;;;;;;;18.41;60.65;100626.00;2075493;28;20029;-65
2021/05/20 00:03:53;;;;;;;21.10;17.77;;;;;;;18.41;60.51;100620.56;2076904;28;20083;-65
2021/05/20 00:04:54;;;;;;;25.33;20.33;;;;;;;18.40;60.45;100629.75;2077155;28;20547;-65
2021/05/20 00:05:54;;;;;;;24.43;18.50;;;;;;;18.40;60.67;100632.47;2073850;28;20032;-65
2021/05/20 00:06:55;;;;;;;22.93;18.77;;;;;;;18.39;60.56;100634.31;2077676;28;20031;-65
2021/05/20 00:07:55;;;;;;;21.77;18.17;;;;;;;18.39;60.71;100630.72;2077982;28;20254;-65
2021/05/20 00:08:56;;;;;;;23.43;17.90;;;;;;;18.40;60.43;100630.59;2081020;28;20034;-66
2021/05/20 00:09:56;;;;;;;23.67;19.33;;;;;;;18.40;60.59;100630.59;2077973;28;20622;-65
2021/05/20 00:10:57;;;;;;;22.47;18.73;;;;;;;18.40;60.49;100630.59;2080278;28;20025;-65
2021/05/20 00:11:58;;;;;;;23.83;19.13;;;;;;;18.38;60.46;100621.69;2078082;28;20029;-65
2021/05/20 00:12:59;;;;;;;24.57;19.57;;;;;;;18.38;60.55;100618.94;2078560;28;20076;-65
2021/05/20 00:14:00;;;;;;;23.60;19.00;;;;;;;18.39;60.53;100631.59;2078714;28;20172;-65
2021/05/20 00:15:00;;;;;;;25.00;18.97;;;;;;;18.40;60.49;100616.97;2077763;28;20124;-63
2021/05/20 00:16:01;;;;;;;23.03;18.37;;;;;;;18.39;60.41;100617.94;2078888;28;20036;-64
2021/05/20 00:17:01;;;;;;;21.33;18.50;;;;;;;18.39;60.32;100617.94;2075169;28;20029;-64
2021/05/20 00:18:02;;;;;;;22.83;17.60;;;;;;;18.39;60.52;100617.94;2076055;28;20029;-65
2021/05/20 00:19:03;;;;;;;19.92;15.30;;;;;;;18.36;60.47;100615.47;2079651;28;20455;-64
2021/05/20 00:20:05;;;;;;;19.10;15.77;;;;;;;18.35;60.56;100616.50;2086303;28;20091;-65
2021/05/20 00:21:05;;;;;;;;;;;;;;;18.29;60.68;100606.09;2078822;28;20025;-64
2021/05/20 00:22:06;;;;;;;20.95;16.73;;;;;;;18.29;60.62;100599.78;2078447;28;19913;-65
2021/05/20 00:23:06;;;;;;;24.13;17.33;;;;;;;18.27;60.75;100597.16;2078444;28;20033;-64
2021/05/20 00:24:07;;;;;;;22.97;18.90;;;;;;;18.29;60.69;100597.03;2079290;28;20034;-65
2021/05/20 00:25:09;;;;;;;22.70;17.27;;;;;;;18.28;60.62;100598.06;2078434;28;20033;-64
2021/05/20 00:26:12;;;;;;;21.48;18.48;;;;;;;18.28;60.65;100603.50;2079269;28;20397;-64
2021/05/20 00:27:13;;;;;;;22.23;17.75;;;;;;;18.28;60.63;100609.84;2069315;28;20029;-65
2021/05/20 00:28:14;;;;;;;22.30;17.70;;;;;;;18.27;60.89;100599.91;2058110;28;20552;-64
2021/05/20 00:29:14;;;;;;;21.97;18.53;;;;;;;18.27;60.80;100599.03;2068826;28;20292;-64
2021/05/20 00:30:15;;;;;;;20.93;16.63;;;;;;;18.26;60.79;100595.44;2078541;28;20033;-65
2021/05/20 00:31:16;;;;;;;18.47;15.87;;;;;;;18.27;60.44;100597.16;2078373;28;20490;-65
2021/05/20 00:32:17;;;;;;;21.37;17.70;;;;;;;18.28;60.62;100608.97;2071889;28;20366;-64
2021/05/20 00:33:18;;;;;;;22.63;17.98;;;;;;;18.27;60.57;100608.09;2070589;28;20025;-64
2021/05/20 00:34:18;;;;;;;20.37;16.70;;;;;;;18.27;60.71;100597.16;2082955;28;20046;-65
2021/05/20 00:35:19;;;;;;;19.00;15.47;;;;;;;18.27;60.65;100601.78;2086074;28;20387;-65
2021/05/20 00:36:19;;;;;;;21.13;16.63;;;;;;;18.26;60.55;100592.72;2080674;28;20029;-64
2021/05/20 00:37:20;;;;;;;20.10;14.93;;;;;;;18.25;60.68;100599.19;2078753;28;20082;-64
2021/05/20 00:38:20;;;;;;;18.83;15.73;;;;;;;18.25;60.65;100593.72;2085540;28;20460;-65
2021/05/20 00:39:21;;;;;;;20.30;15.53;;;;;;;18.25;60.72;100592.84;2080017;28;20534;-65
2021/05/20 00:40:21;;;;;;;19.00;16.07;;;;;;;18.23;60.66;100593.00;2078720;28;20750;-64
2021/05/20 00:41:22;;;;;;;20.53;15.57;;;;;;;18.24;60.77;100597.44;2077749;28;20099;-65
2021/05/20 00:42:22;;;;;;;19.70;15.27;;;;;;;18.23;60.54;100595.72;2078347;28;20038;-65
2021/05/20 00:43:23;;;;;;;18.20;14.57;;;;;;;18.25;60.59;100595.56;2085813;28;20057;-65
2021/05/20 00:44:23;;;;;;;17.83;15.00;;;;;;;18.25;60.50;100599.19;2080429;28;20083;-65
2021/05/20 00:45:24;;;;;;;19.93;15.67;;;;;;;18.23;60.65;100595.72;2078440;28;20456;-64
2021/05/20 00:46:25;;;;;;;20.43;15.07;;;;;;;18.24;60.47;100602.91;2077489;28;20026;-64
2021/05/20 00:47:29;;;;;;;20.90;16.30;;;;;;;18.24;60.60;100602.91;2078069;28;20041;-64
2021/05/20 00:50:26;;;;;;;17.88;14.27;;;;;;;18.20;60.68;100588.66;2073418;28;20037;-64
2021/05/20 00:51:27;;;;;;;18.53;14.87;;;;;;;18.20;60.52;100585.94;2075917;28;20088;-65
2021/05/20 00:52:27;;;;;;;16.17;13.60;;;;;;;18.22;60.58;100585.78;2077271;28;20033;-65
2021/05/20 00:53:28;;;;;;;16.90;14.23;;;;;;;18.21;60.56;100581.34;2078113;28;20068;-65
2021/05/20 00:54:28;;;;;;;16.53;13.43;;;;;;;18.23;60.45;100589.38;2078059;28;20215;-64
2021/05/20 00:55:33;;;;;;;19.30;14.60;;;;;;;18.22;60.57;100583.06;2086010;28;20562;-65
2021/05/20 00:56:38;;;;;;;16.42;13.65;;;;;;;18.21;60.59;100586.78;2078981;28;20154;-65
2021/05/20 00:57:39;;;;;;;17.17;13.30;;;;;;;18.21;60.56;100584.06;2082183;28;20025;-65
2021/05/20 00:58:43;;;;;;;17.10;13.70;;;;;;;18.20;60.48;100591.41;2072460;28;20112;-65
2021/05/20 00:59:45;;;;;;;16.58;13.68;;;;;;;18.22;60.64;100588.50;2064681;28;20064;-65
2021/05/20 01:00:48;;;;;;;19.70;14.63;;;;;;;18.23;60.49;100590.25;2069247;28;20029;-64
2021/05/20 01:01:49;;;;;;;16.98;14.27;;;;;;;18.23;60.57;100592.09;2074683;28;20476;-64
2021/05/20 01:02:49;;;;;;;16.73;13.57;;;;;;;18.22;60.49;100588.50;2080869;28;20377;-65
2021/05/20 01:03:50;;;;;;;16.50;13.17;;;;;;;18.22;60.63;100580.31;2078556;28;20033;-65
2021/05/20 01:04:51;;;;;;;17.63;13.40;;;;;;;18.21;60.65;100581.34;2077168;28;20567;-65
2021/05/20 01:05:53;;;;;;;16.03;13.70;;;;;;;18.21;60.48;100578.59;2073928;28;20104;-65
2021/05/20 01:06:54;;;;;;;18.63;13.93;;;;;;;18.22;60.46;100577.59;2082304;28;20035;-64
2021/05/20 01:07:55;;;;;;;16.03;13.13;;;;;;;18.21;60.41;100581.34;2085979;28;20025;-64
2021/05/20 01:08:57;;;;;;;16.63;12.90;;;;;;;18.22;60.53;100580.31;2086727;28;20032;-65
2021/05/20 01:09:57;;;;;;;16.00;14.25;;;;;;;18.22;60.52;100588.50;2080026;28;20092;-64
2021/05/20 01:10:59;;;;;;;17.60;14.07;;;;;;;18.20;60.64;100576.84;2079956;28;20106;-65
2021/05/20 01:12:00;;;;;;;;;;;;;;;18.17;60.68;100579.88;2074583;28;20120;-65
2021/05/20 01:13:01;;;;;;;17.75;13.35;;;;;;;18.19;60.52;100588.78;2074939;28;19913;-65
2021/05/20 01:14:01;;;;;;;18.73;13.67;;;;;;;18.18;60.54;100573.44;2079638;28;20061;-64
2021/05/20 01:15:03;;;;;;;15.60;13.27;;;;;;;18.19;60.65;100572.41;2080110;28;20036;-64
2021/05/20 01:16:10;;;;;;;16.70;13.45;;;;;;;18.18;60.63;100576.16;2079716;28;20037;-65
2021/05/20 01:17:12;;;;;;;18.90;13.85;;;;;;;18.19;60.64;100583.34;2078111;28;20052;-65
2021/05/20 01:18:12;;;;;;;16.75;12.93;;;;;;;18.19;60.57;100577.88;2078224;28;20136;-65
2021/05/20 01:19:14;;;;;;;15.70;13.27;;;;;;;18.20;60.60;100595.97;2082237;28;20029;-64
2021/05/20 01:20:22;;;;;;;19.35;15.20;;;;;;;18.20;60.54;100590.50;2085590;28;20033;-65
2021/05/20 01:21:22;;;;;;;17.75;13.93;;;;;;;18.19;60.43;100595.09;2069930;28;20448;-65
2021/05/20 01:22:23;;;;;;;15.53;13.67;;;;;;;18.20;60.61;100593.22;2071697;28;20065;-65
2021/05/20 01:23:24;;;;;;;16.40;13.00;;;;;;;18.19;60.57;100588.78;2079858;28;20029;-65
2021/05/20 01:26:22;;;;;;;18.67;14.57;;;;;;;18.17;60.53;100590.78;2077538;28;20410;-64
2021/05/20 01:27:23;;;;;;;18.40;13.98;;;;;;;18.19;60.55;100588.78;2070831;28;20037;-64
2021/05/20 01:28:28;;;;;;;16.00;12.38;;;;;;;18.19;60.33;100586.06;2078365;28;20400;-64
2021/05/20 01:29:29;;;;;;;17.30;13.85;;;;;;;18.18;60.44;100587.06;2076632;28;20041;-64
2021/05/20 01:30:34;;;;;;;18.63;14.73;;;;;;;18.16;60.42;100589.91;2079132;28;20025;-65
2021/05/20 01:31:35;;;;;;;19.67;14.05;;;;;;;18.17;60.41;100596.22;2074972;28;20073;-65
2021/05/20 01:32:36;;;;;;;15.20;13.00;;;;;;;18.18;60.45;100592.53;2081290;28;20076;-64
2021/05/20 01:33:36;;;;;;;16.00;12.80;;;;;;;18.18;60.67;100596.13;2081224;28;20025;-65
2021/05/20 01:34:37;;;;;;;17.60;13.33;;;;;;;18.17;60.55;100585.31;2083996;28;20109;-64
2021/05/20 01:35:40;;;;;;;16.33;13.30;;;;;;;18.18;60.55;100589.78;2080079;28;20039;-64
2021/05/20 01:36:41;;;;;;;16.20;13.90;;;;;;;18.17;60.45;100593.50;2073545;28;20299;-65
2021/05/20 01:37:41;;;;;;;17.07;13.73;;;;;;;18.17;60.54;100596.22;2077132;28;20037;-64
2021/05/20 01:38:42;;;;;;;15.37;13.73;;;;;;;18.18;60.46;100601.56;2080702;28;20120;-65
2021/05/20 01:39:42;;;;;;;18.93;15.27;;;;;;;18.18;60.38;100582.47;2082804;28;20244;-63
2021/05/20 01:40:49;;;;;;;18.57;14.23;;;;;;;18.16;60.50;100587.19;2079153;28;20392;-65
2021/05/20 01:41:50;;;;;;;16.63;13.23;;;;;;;18.16;60.56;100583.59;2079694;28;20029;-64
2021/05/20 01:42:50;;;;;;;16.73;13.70;;;;;;;18.18;60.55;100589.78;2079425;28;20041;-65
2021/05/20 01:43:51;;;;;;;14.87;12.93;;;;;;;18.16;60.49;100584.47;2070543;28;20215;-65
2021/05/20 01:44:53;;;;;;;17.53;14.43;;;;;;;18.15;60.39;100587.31;2072252;28;20037;-65
2021/05/20 01:46:57;;;;;;;16.17;13.35;;;;;;;18.13;60.66;100594.78;2079317;28;20071;-65
2021/05/20 01:47:59;;;;;;;16.37;13.03;;;;;;;18.14;60.61;100596.50;2080236;28;20088;-65
2021/05/20 01:49:00;;;;;;;16.23;13.48;;;;;;;18.12;60.61;100587.59;2079313;28;20839;-64
2021/05/20 01:50:00;;;;;;;16.57;13.03;;;;;;;18.13;60.53;100586.59;2078879;28;20492;-64
2021/05/20 01:51:04;;;;;;;17.17;14.13;;;;;;;18.13;60.68;100583.88;2079398;28;20033;-65
2021/05/20 01:52:04;;;;;;;16.05;13.45;;;;;;;18.14;60.69;100585.59;2076084;28;20033;-65
2021/05/20 01:53:05;;;;;;;15.87;12.80;;;;;;;18.14;60.70;100591.91;2075494;28;20669;-65
2021/05/20 01:54:06;;;;;;;16.47;13.43;;;;;;;18.14;60.44;100585.59;2078058;28;20515;-64
2021/05/20 01:55:07;;;;;;;17.97;13.53;;;;;;;18.15;60.53;100587.31;2077468;28;20056;-65
2021/05/20 01:56:08;;;;;;;16.37;13.70;;;;;;;18.14;60.56;100586.44;2070530;28;20268;-65
2021/05/20 01:57:09;;;;;;;15.13;13.02;;;;;;;18.15;60.54;100587.31;2073196;28;20407;-65
2021/05/20 01:58:09;;;;;;;18.77;13.90;;;;;;;18.14;60.51;100589.19;2072922;28;20029;-65
2021/05/20 01:59:12;;;;;;;14.97;12.27;;;;;;;18.14;60.51;100588.31;2081721;28;20028;-64
2021/05/20 02:00:13;;;;;;;16.10;13.70;;;;;;;18.12;60.58;100591.16;2079493;28;20032;-65
2021/05/20 02:01:14;;;;;;;17.15;12.98;;;;;;;18.13;60.69;100590.19;2078358;28;20128;-65
2021/05/20 02:02:14;;;;;;;15.95;13.40;;;;;;;18.14;60.60;100588.31;2074502;28;20058;-65
2021/05/20 02:03:15;;;;;;;17.03;14.03;;;;;;;18.15;60.57;100592.75;2079039;28;20041;-65
2021/05/20 02:04:15;;;;;;;17.40;14.17;;;;;;;18.14;60.62;100596.50;2076737;28;20587;-65
2021/05/20 02:05:16;;;;;;;17.40;14.50;;;;;;;18.13;60.67;100589.34;2079349;28;20041;-65
2021/05/20 02:06:17;;;;;;;17.70;13.60;;;;;;;18.14;60.57;100591.03;2078386;28;20634;-65
2021/05/20 02:07:17;;;;;;;20.90;14.13;;;;;;;18.13;60.46;100590.19;2078404;28;20059;-65
2021/05/20 02:08:18;;;;;;;16.13;13.40;;;;;;;18.14;60.53;100601.97;2079300;28;20690;-64
2021/05/20 02:09:18;;;;;;;17.03;13.83;;;;;;;18.14;60.60;100601.97;2077979;28;20033;-65
2021/05/20 02:10:19;;;;;;;16.00;12.77;;;;;;;18.14;60.64;100596.50;2074204;28;20412;-65
2021/05/20 02:11:19;;;;;;;15.77;13.70;;;;;;;18.14;60.38;100593.78;2079580;28;20724;-65
2021/05/20 02:12:20;;;;;;;17.30;14.37;;;;;;;18.15;60.50;100600.94;2079309;28;20029;-65
2021/05/20 02:13:21;;;;;;;16.70;13.80;;;;;;;18.14;60.34;100596.50;2079382;28;20037;-65
2021/05/20 02:14:21;;;;;;;16.50;13.27;;;;;;;18.13;60.55;100595.66;2079369;28;20033;-64
2021/05/20 02:15:22;;;;;;;16.27;14.03;;;;;;;18.13;60.43;100602.97;2079323;28;20072;-65
2021/05/20 02:16:23;;;;;;;16.63;13.30;;;;;;;18.14;60.51;100596.50;2080953;28;20083;-64
2021/05/20 02:17:23;;;;;;;15.37;12.73;;;;;;;18.13;60.62;100594.78;2078670;28;20037;-64
2021/05/20 02:18:24;;;;;;;18.17;13.60;;;;;;;18.13;60.45;100592.06;2079324;28;20492;-64
2021/05/20 02:19:25;;;;;;;17.37;13.90;;;;;;;18.13;60.38;100595.66;2070106;28;20066;-65
2021/05/20 02:20:26;;;;;;;17.95;13.82;;;;;;;18.13;60.50;100592.06;2070579;28;20485;-65
2021/05/20 02:21:26;;;;;;;15.73;13.20;;;;;;;18.13;60.61;100592.06;2079116;28;20042;-65
2021/05/20 02:22:27;;;;;;;17.10;14.40;;;;;;;18.12;60.35;100593.03;2079174;28;20040;-65
2021/05/20 02:23:27;;;;;;;17.53;13.40;;;;;;;18.11;60.63;100594.03;2078700;28;20416;-65
2021/05/20 02:24:28;;;;;;;16.17;13.50;;;;;;;18.11;60.61;100592.19;2078510;28;20030;-65
2021/05/20 02:25:29;;;;;;;16.40;12.87;;;;;;;18.11;60.52;100591.31;2080801;28;20051;-65
2021/05/20 02:26:29;;;;;;;17.70;13.50;;;;;;;18.11;60.49;100594.03;2083307;28;20033;-65
2021/05/20 02:27:30;;;;;;;18.30;14.57;;;;;;;18.11;60.41;100594.03;2083762;28;20422;-65
2021/05/20 02:28:31;;;;;;;15.90;13.20;;;;;;;18.11;60.46;100591.31;2080190;28;20832;-65
2021/05/20 02:29:31;;;;;;;15.67;13.97;;;;;;;18.12;60.50;100593.03;2075494;28;20039;-65
2021/05/20 02:30:32;;;;;;;18.83;14.63;;;;;;;18.11;60.61;100596.78;2078908;28;20040;-65
2021/05/20 02:31:33;;;;;;;16.45;13.02;;;;;;;18.11;60.47;100594.91;2077404;28;20037;-65
2021/05/20 02:32:33;;;;;;;15.70;13.10;;;;;;;18.11;60.44;100602.22;2078933;28;20567;-64
2021/05/20 02:33:34;;;;;;;16.87;13.40;;;;;;;18.11;60.67;100604.97;2081616;28;20033;-65
2021/05/20 02:34:34;;;;;;;16.47;13.47;;;;;;;18.11;60.55;100596.78;2079081;28;20038;-64
2021/05/20 02:35:35;;;;;;;16.17;13.20;;;;;;;18.11;60.52;100597.63;2079293;28;20045;-65
2021/05/20 02:36:35;;;;;;;18.23;14.20;;;;;;;18.10;60.50;100595.03;2076141;28;20028;-65
2021/05/20 02:37:36;;;;;;;17.67;13.87;;;;;;;18.10;60.45;100595.03;2079354;28;20395;-65
2021/05/20 02:38:37;;;;;;;18.00;13.15;;;;;;;18.10;60.49;100590.44;2078606;28;20116;-65
2021/05/20 02:39:37;;;;;;;16.47;13.80;;;;;;;18.09;60.49;100602.34;2079340;28;20033;-65
2021/05/20 02:40:38;;;;;;;17.03;13.93;;;;;;;18.09;60.62;100598.75;2078512;28;20116;-64
2021/05/20 02:41:38;;;;;;;16.27;13.77;;;;;;;18.10;60.39;100595.03;2079097;28;20137;-64
2021/05/20 02:42:39;;;;;;;18.57;13.87;;;;;;;18.10;60.39;100593.16;2078633;28;20490;-64
2021/05/20 02:43:40;;;;;;;16.30;13.40;;;;;;;18.09;60.54;100594.16;2078206;28;20474;-65
2021/05/20 02:44:49;;;;;;;15.57;13.40;;;;;;;18.07;60.56;100593.44;2069736;28;20127;-64
2021/05/20 02:45:52;;;;;;;16.25;12.90;;;;;;;18.08;60.43;100587.00;2070445;28;20488;-65
2021/05/20 02:46:53;;;;;;;16.30;14.43;;;;;;;18.07;60.65;100590.69;2076645;28;20379;-65
2021/05/20 02:47:53;;;;;;;16.58;13.35;;;;;;;18.08;60.63;100591.56;2078919;28;20279;-64
2021/05/20 02:48:54;;;;;;;19.27;14.17;;;;;;;18.09;60.54;100596.03;2083358;28;20024;-65
2021/05/20 02:49:54;;;;;;;17.13;13.23;;;;;;;18.07;60.49;100590.69;2075869;28;20029;-65
2021/05/20 02:50:55;;;;;;;15.80;13.43;;;;;;;18.09;60.53;100596.03;2083935;28;20143;-64
2021/05/20 02:51:55;;;;;;;15.20;12.80;;;;;;;18.09;60.48;100590.59;2078439;28;20029;-65
2021/05/20 02:52:56;;;;;;;17.63;14.60;;;;;;;18.07;60.50;100595.28;2069681;28;20030;-65
2021/05/20 02:53:56;;;;;;;15.30;13.20;;;;;;;18.07;60.45;100589.84;2074464;28;20516;-65
2021/05/20 02:54:57;;;;;;;17.27;14.20;;;;;;;18.09;60.51;100596.91;2078742;28;20500;-65
2021/05/20 02:55:57;;;;;;;17.67;13.27;;;;;;;18.09;60.50;100593.31;2079042;28;20069;-65
2021/05/20 02:56:59;;;;;;;16.77;13.90;;;;;;;18.09;60.41;100593.31;2080916;28;20032;-65
2021/05/20 02:58:02;;;;;;;16.20;14.02;;;;;;;18.09;60.57;100588.72;2078970;28;20034;-64
2021/05/20 02:59:02;;;;;;;17.83;13.88;;;;;;;18.10;60.45;100589.56;2078441;28;20041;-65
2021/05/20 03:00:04;;;;;;;15.37;12.63;;;;;;;18.09;60.54;100598.75;2078218;28;20033;-65
2021/05/20 03:01:05;;;;;;;16.42;13.35;;;;;;;18.10;60.47;100595.03;2078708;28;20070;-65
2021/05/20 03:02:07;;;;;;;16.67;13.60;;;;;;;18.08;60.58;100591.56;2076756;28;20052;-65
2021/05/20 03:03:07;;;;;;;16.73;14.00;;;;;;;18.09;60.33;100590.59;2078917;28;20618;-65
2021/05/20 03:04:08;;;;;;;17.23;14.33;;;;;;;18.08;60.34;100591.56;2078736;28;20400;-64
2021/05/20 03:05:09;;;;;;;14.97;13.17;;;;;;;18.07;60.59;100587.13;2078728;28;20033;-65
2021/05/20 03:06:09;;;;;;;16.10;14.20;;;;;;;18.08;60.56;100588.84;2078996;28;20048;-65
2021/05/20 03:07:11;;;;;;;15.20;12.80;;;;;;;18.07;60.44;100589.84;2078376;28;20053;-65
2021/05/20 03:08:12;;;;;;;16.25;13.57;;;;;;;18.07;60.54;100593.44;2077412;28;20025;-65
2021/05/20 03:09:12;;;;;;;16.50;14.50;;;;;;;18.08;60.67;100591.56;2078411;28;20116;-64
2021/05/20 03:10:13;;;;;;;16.20;13.03;;;;;;;18.07;60.39;100584.38;2078459;28;20272;-65
2021/05/20 03:11:14;;;;;;;17.45;14.07;;;;;;;18.06;60.34;100593.56;2075482;28;20040;-64
2021/05/20 03:12:14;;;;;;;15.57;12.70;;;;;;;18.06;60.47;100588.13;2078843;28;20029;-65
2021/05/20 03:13:15;;;;;;;15.53;13.10;;;;;;;18.06;60.60;100593.56;2079139;28;20033;-65
2021/05/20 03:14:16;;;;;;;16.33;12.97;;;;;;;18.06;60.42;100588.13;2078414;28;20116;-65
2021/05/20 03:15:16;;;;;;;16.30;12.65;;;;;;;18.05;60.61;100591.84;2078886;28;20051;-65
2021/05/20 03:16:17;;;;;;;15.23;13.40;;;;;;;18.07;60.49;100584.38;2079244;28;20025;-65
2021/05/20 03:17:17;;;;;;;16.37;13.67;;;;;;;18.06;60.54;100588.13;2076749;28;20034;-65
2021/05/20 03:18:18;;;;;;;15.83;13.77;;;;;;;18.06;60.37;100585.41;2078892;28;20416;-65
2021/05/20 03:19:20;;;;;;;16.73;13.70;;;;;;;18.06;60.45;100585.41;2078362;28;20044;-65
2021/05/20 03:20:21;;;;;;;14.82;12.25;;;;;;;18.05;60.39;100578.19;2078186;28;20104;-65
2021/05/20 03:21:21;;;;;;;16.70;13.57;;;;;;;18.04;60.28;100582.78;2078821;28;20504;-65
2021/05/20 03:22:22;;;;;;;14.53;12.40;;;;;;;18.05;60.43;100583.66;2078340;28;20555;-65
2021/05/20 03:23:22;;;;;;;14.30;12.47;;;;;;;18.05;60.37;100589.09;2079220;28;20033;-64
2021/05/20 03:24:23;;;;;;;13.97;11.90;;;;;;;18.03;60.45;100585.63;2077791;28;20859;-64
2021/05/20 03:25:23;;;;;;;14.97;13.00;;;;;;;18.04;60.39;100584.66;2078342;28;20037;-64
2021/05/20 03:26:24;;;;;;;15.03;12.87;;;;;;;18.05;60.38;100583.66;2078858;28;20052;-64
2021/05/20 03:27:24;;;;;;;17.47;13.43;;;;;;;18.05;60.38;100581.78;2078384;28;20124;-64
2021/05/20 03:28:25;;;;;;;15.53;13.17;;;;;;;18.04;60.52;100584.66;2078999;28;20033;-65
2021/05/20 03:29:25;;;;;;;16.10;12.70;;;;;;;18.04;60.53;100584.66;2078915;28;20033;-64
2021/05/20 03:30:26;;;;;;;15.37;12.77;;;;;;;18.03;60.53;100585.63;2075957;28;20029;-65
2021/05/20 03:31:26;;;;;;;15.60;12.93;;;;;;;18.03;60.55;100583.81;2078769;28;20033;-64
2021/05/20 03:32:27;;;;;;;17.80;13.23;;;;;;;18.03;60.52;100593.81;2078172;28;20037;-65
2021/05/20 03:33:27;;;;;;;17.33;13.60;;;;;;;18.03;60.55;100588.38;2078202;28;20037;-64
2021/05/20 03:34:28;;;;;;;14.17;12.57;;;;;;;18.04;60.63;100590.13;2077745;28;20112;-64
2021/05/20 03:35:28;;;;;;;16.03;12.40;;;;;;;18.03;60.44;100591.09;2078800;28;20099;-64
2021/05/20 03:36:29;;;;;;;16.47;13.10;;;;;;;18.03;60.48;100582.91;2077980;28;20032;-63
2021/05/20 03:37:29;;;;;;;16.60;13.23;;;;;;;18.04;60.39;100590.13;2078340;28;20162;-64
2021/05/20 03:38:30;;;;;;;16.20;13.53;;;;;;;18.02;60.36;100582.03;2078818;28;20021;-65
2021/05/20 03:39:31;;;;;;;15.13;13.00;;;;;;;18.00;60.39;100578.56;2070794;28;20154;-65
2021/05/20 03:40:32;;;;;;;16.27;12.70;;;;;;;18.03;60.56;100582.91;2069235;28;20038;-64
2021/05/20 03:41:32;;;;;;;15.83;13.17;;;;;;;18.02;60.49;100575.72;2077384;28;20037;-65
2021/05/20 03:42:34;;;;;;;15.90;12.70;;;;;;;18.02;60.44;100582.03;2078439;28;20104;-65
2021/05/20 03:43:36;;;;;;;17.17;13.60;;;;;;;18.03;60.46;100581.06;2078260;28;20136;-65
2021/05/20 03:44:37;;;;;;;15.77;13.38;;;;;;;18.03;60.49;100582.91;2077761;28;20025;-64
2021/05/20 03:45:37;;;;;;;16.27;12.80;;;;;;;18.01;60.33;100580.31;2078965;28;20044;-64
2021/05/20 03:46:38;;;;;;;15.70;12.67;;;;;;;18.02;60.49;100578.47;2078210;28;20508;-65
2021/05/20 03:47:39;;;;;;;16.43;14.03;;;;;;;18.02;60.56;100575.72;2077757;28;20041;-65
2021/05/20 03:48:39;;;;;;;15.00;12.55;;;;;;;18.02;60.33;100575.72;2078623;28;20025;-65
2021/05/20 03:49:40;;;;;;;15.63;13.07;;;;;;;18.00;60.49;100576.72;2078044;28;20029;-65
2021/05/20 03:50:40;;;;;;;15.97;13.10;;;;;;;18.00;60.51;100568.53;2078357;28;20029;-65
2021/05/20 03:51:41;;;;;;;15.70;13.33;;;;;;;18.00;60.41;100573.97;2078204;28;22368;-64
2021/05/20 03:52:41;;;;;;;17.20;13.47;;;;;;;18.00;60.40;100570.41;2078564;28;20674;-65
2021/05/20 03:53:41;;;;;;;17.23;12.93;;;;;;;18.00;60.29;100563.06;2078549;28;20037;-65
2021/05/20 03:54:43;;;;;;;15.37;12.93;;;;;;;18.00;60.24;100573.97;2078464;28;20136;-65
2021/05/20 03:55:43;;;;;;;16.02;13.13;;;;;;;18.00;60.43;100568.53;2078403;28;20033;-65
2021/05/20 03:56:44;;;;;;;16.33;13.20;;;;;;;18.00;60.36;100568.53;2078543;28;20037;-64
2021/05/20 03:57:44;;;;;;;16.23;13.40;;;;;;;18.02;60.52;100573.00;2069187;28;20895;-65
2021/05/20 03:58:45;;;;;;;14.77;12.37;;;;;;;18.00;60.30;100571.25;2069430;28;20473;-64
2021/05/20 03:59:46;;;;;;;17.10;13.43;;;;;;;18.02;60.44;100578.47;2076563;28;20179;-65
2021/05/20 04:00:46;;;;;;;17.13;13.40;;;;;;;18.00;60.40;100568.53;2075913;28;20086;-65
2021/05/20 04:01:47;;;;;;;15.43;12.13;;;;;;;18.00;60.49;100573.97;2075277;28;20052;-65
2021/05/20 04:02:49;;;;;;;15.37;13.20;;;;;;;18.00;60.28;100573.97;2072945;28;20586;-65
2021/05/20 04:03:49;;;;;;;13.23;11.82;;;;;;;18.00;60.49;100576.72;2078103;28;20029;-65
2021/05/20 04:04:50;;;;;;;14.83;11.90;;;;;;;18.02;60.39;100576.59;2078314;28;20034;-65
2021/05/20 04:05:52;;;;;;;14.67;11.60;;;;;;;18.00;60.29;100571.25;2077907;28;20037;-65
2021/05/20 04:06:52;;;;;;;14.63;11.50;;;;;;;17.98;60.35;100572.38;2078449;28;20033;-65
2021/05/20 04:07:53;;;;;;;15.83;12.40;;;;;;;17.99;60.45;100577.72;2077476;28;20128;-65
2021/05/20 04:08:53;;;;;;;15.50;13.33;;;;;;;18.00;60.07;100575.84;2077895;28;20029;-65
2021/05/20 04:09:54;;;;;;;16.47;13.07;;;;;;;17.99;60.29;100571.41;2078250;28;20025;-64
2021/05/20 04:10:55;;;;;;;16.20;13.20;;;;;;;17.99;60.20;100577.72;2078492;28;20025;-65
2021/05/20 04:11:55;;;;;;;15.55;12.55;;;;;;;17.99;60.46;100577.72;2078392;28;20029;-65
2021/05/20 04:12:56;;;;;;;15.53;12.53;;;;;;;17.99;60.34;100571.41;2077247;28;20048;-64
2021/05/20 04:13:56;;;;;;;16.57;12.80;;;;;;;17.98;60.27;100576.00;2074124;28;20033;-65
2021/05/20 04:14:56;;;;;;;15.43;12.87;;;;;;;17.97;60.41;100573.41;2078754;28;20044;-65
2021/05/20 04:15:58;;;;;;;15.47;13.07;;;;;;;17.97;60.56;100571.53;2078252;28;20490;-64
2021/05/20 04:16:58;;;;;;;16.00;13.23;;;;;;;17.96;60.45;100572.53;2079153;28;20033;-65
2021/05/20 04:17:59;;;;;;;15.70;13.00;;;;;;;17.96;60.51;100567.09;2078668;28;20041;-65
2021/05/20 04:19:01;;;;;;;16.10;13.63;;;;;;;17.97;60.25;100573.41;2077859;28;20724;-65
2021/05/20 04:20:03;;;;;;;13.95;11.80;;;;;;;17.98;60.32;100573.28;2078782;28;20021;-65
2021/05/20 04:21:04;;;;;;;15.30;12.07;;;;;;;17.98;60.31;100573.28;2074173;28;20036;-64
2021/05/20 04:22:04;;;;;;;13.80;11.63;;;;;;;17.96;60.24;100575.25;2072943;28;20108;-65
2021/05/20 04:23:05;;;;;;;14.43;11.53;;;;;;;17.99;60.43;100576.84;2076080;28;20499;-65
2021/05/20 04:24:06;;;;;;;14.87;12.40;;;;;;;17.95;60.39;100570.78;2070772;28;20025;-64
2021/05/20 04:25:07;;;;;;;14.60;12.50;;;;;;;17.97;60.35;100573.41;2075586;28;20037;-65
2021/05/20 04:26:07;;;;;;;15.73;13.40;;;;;;;17.97;60.18;100578.84;2078842;28;20032;-65
2021/05/20 04:27:08;;;;;;;15.57;12.33;;;;;;;17.97;60.43;100574.25;2077692;28;20026;-65
2021/05/20 04:28:09;;;;;;;13.83;11.90;;;;;;;17.98;60.49;100584.19;2078082;28;20566;-64
2021/05/20 04:29:09;;;;;;;14.15;11.40;;;;;;;17.96;60.34;100572.53;2078114;28;20025;-65
2021/05/20 04:30:11;;;;;;;13.80;11.70;;;;;;;17.96;60.28;100575.25;2078131;28;20067;-65
2021/05/20 04:31:11;;;;;;;14.98;12.95;;;;;;;17.95;60.38;100570.78;2075119;28;20430;-64
2021/05/20 04:32:11;;;;;;;17.33;13.33;;;;;;;17.95;60.39;100565.34;2077727;28;20025;-65
2021/05/20 04:33:13;;;;;;;14.07;11.40;;;;;;;17.94;60.32;100563.63;2078237;28;20017;-65
2021/05/20 04:34:13;;;;;;;13.98;11.77;;;;;;;17.95;60.25;100576.25;2077350;28;20048;-65
2021/05/20 04:35:14;;;;;;;13.33;11.90;;;;;;;17.95;60.22;100565.34;2077498;28;20021;-64
2021/05/20 04:36:14;;;;;;;14.53;11.10;;;;;;;17.96;60.36;100566.22;2077027;28;20551;-64
2021/05/20 04:37:14;;;;;;;14.23;12.40;;;;;;;17.95;60.29;100564.47;2077115;28;20079;-66
2021/05/20 04:38:15;;;;;;;15.10;13.23;;;;;;;17.95;60.36;100559.00;2077262;28;20105;-64
2021/05/20 04:39:15;;;;;;;14.70;12.30;;;;;;;17.94;60.37;100551.84;2078455;28;20751;-65
2021/05/20 04:40:16;;;;;;;16.03;13.50;;;;;;;17.94;60.38;100563.63;2082271;28;20112;-65
2021/05/20 04:41:16;;;;;;;15.30;12.83;;;;;;;17.94;60.41;100557.31;2078100;28;20037;-65
2021/05/20 04:42:17;;;;;;;15.60;12.93;;;;;;;17.95;60.30;100551.69;2078201;28;20021;-65